X  Sluiten METAR luchtvaart weer gegevens      EHAM Amsterdam Airport Schiphol
Temperatuur
16°C Temperatuur
15°C Dauwpunt
94% Vochtigheid



Wind
8 KM/U
5 MPH
2 M/S
4 KTS



290°
WNW
Huidig weer

Wat bewolking Wat bewolking
Luchtdruk 1009.82 (hPa) - 29.82 (inHg)
Zicht 6 (mijl) - 9.7 (km)
Vliegveld
Vliegveld code EHAM

Locatie : Amsterdam Airport Schiphol
Afstand: 14 (km)

Metar:
EHAM 201725Z 29004KT 270V330 9999 FEW025CB 16/15 Q1010 NOSIG

Tijd: 20-05-2024 17:25 CEST